createdAt,value
2018-10-18T00:01:57.505Z,17.97
2018-10-18T00:04:29.236Z,19.30
2018-10-18T00:07:01.190Z,18.47
2018-10-18T00:09:32.984Z,19.47
2018-10-18T00:12:05.026Z,18.53
2018-10-18T00:14:36.420Z,19.63
2018-10-18T00:17:13.321Z,18.97
2018-10-18T00:19:45.207Z,18.03
2018-10-18T00:22:16.773Z,18.87
2018-10-18T00:24:48.480Z,19.03
2018-10-18T00:27:20.108Z,19.43
2018-10-18T00:29:51.690Z,18.87
2018-10-18T00:32:23.182Z,19.57
2018-10-18T00:34:54.837Z,19.30
2018-10-18T00:37:26.264Z,18.90
2018-10-18T00:39:57.999Z,19.40
2018-10-18T00:42:29.571Z,20.37
2018-10-18T00:45:01.022Z,19.93
2018-10-18T00:47:32.633Z,18.80
2018-10-18T00:50:04.371Z,19.37
2018-10-18T00:52:35.795Z,19.77
2018-10-18T00:55:08.626Z,18.70
2018-10-18T00:57:40.672Z,19.77
2018-10-18T01:00:12.791Z,19.80
2018-10-18T01:02:44.267Z,19.50
2018-10-18T01:05:16.164Z,20.10
2018-10-18T01:07:47.708Z,19.27
2018-10-18T01:10:19.227Z,18.73
2018-10-18T01:12:50.691Z,19.90
2018-10-18T01:15:22.631Z,19.67
2018-10-18T01:17:54.136Z,19.30
2018-10-18T01:20:25.676Z,19.73
2018-10-18T01:22:57.307Z,20.00
2018-10-18T01:25:28.788Z,18.57
2018-10-18T01:28:00.285Z,19.63
2018-10-18T01:30:31.940Z,19.70
2018-10-18T01:33:03.381Z,19.90
2018-10-18T01:35:35.227Z,19.73
2018-10-18T01:38:06.779Z,19.07
2018-10-18T01:40:38.193Z,19.13
2018-10-18T01:43:09.905Z,19.23
2018-10-18T01:45:41.362Z,19.40
2018-10-18T01:48:12.919Z,19.63
2018-10-18T01:50:44.266Z,19.67
2018-10-18T01:53:15.756Z,20.67
2018-10-18T01:55:47.457Z,20.13
2018-10-18T01:58:18.946Z,20.33
2018-10-18T02:00:50.618Z,20.07
2018-10-18T02:03:22.433Z,18.93
2018-10-18T02:06:00.860Z,19.93
2018-10-18T02:08:32.386Z,18.90
2018-10-18T02:11:04.191Z,20.07
2018-10-18T02:13:36.017Z,19.87
2018-10-18T02:16:08.334Z,19.23
2018-10-18T02:18:40.260Z,18.60
2018-10-18T02:21:12.169Z,18.90
2018-10-18T02:23:43.894Z,19.47
2018-10-18T02:26:15.800Z,18.67
2018-10-18T02:28:47.870Z,19.27
2018-10-18T02:31:19.338Z,19.67
2018-10-18T02:33:50.897Z,18.80
2018-10-18T02:36:22.478Z,19.00
2018-10-18T02:38:54.001Z,19.00
2018-10-18T02:41:25.547Z,19.43
2018-10-18T02:43:57.689Z,20.40
2018-10-18T02:46:29.344Z,18.93
2018-10-18T02:49:00.960Z,19.17
2018-10-18T02:51:32.776Z,18.73
2018-10-18T02:54:04.398Z,19.80
2018-10-18T02:56:35.918Z,20.27
2018-10-18T02:59:07.793Z,18.90
2018-10-18T03:01:57.081Z,19.07
2018-10-18T03:04:28.636Z,19.50
2018-10-18T03:07:00.655Z,18.50
2018-10-18T03:09:32.239Z,19.40
2018-10-18T03:12:03.945Z,19.17
2018-10-18T03:14:35.643Z,18.60
2018-10-18T03:17:07.389Z,18.87
2018-10-18T03:19:38.945Z,19.33
2018-10-18T03:22:10.873Z,19.27
2018-10-18T03:24:42.538Z,18.33
2018-10-18T03:27:14.106Z,18.47
2018-10-18T03:29:45.787Z,19.43
2018-10-18T03:32:17.162Z,19.73
2018-10-18T03:34:48.891Z,19.93
2018-10-18T03:37:20.573Z,18.77
2018-10-18T03:39:52.275Z,19.83
2018-10-18T03:42:24.042Z,18.73
2018-10-18T03:44:55.551Z,18.93
2018-10-18T03:47:27.095Z,19.93
2018-10-18T03:49:58.866Z,20.90
2018-10-18T03:52:31.020Z,20.83
2018-10-18T03:55:02.568Z,21.07
2018-10-18T03:57:34.060Z,22.40
2018-10-18T04:00:07.125Z,21.57
2018-10-18T04:02:38.830Z,22.57
2018-10-18T04:05:10.913Z,23.80
2018-10-18T04:07:42.819Z,21.17
2018-10-18T04:10:14.279Z,20.80
2018-10-18T04:12:46.013Z,21.90
2018-10-18T04:15:17.733Z,20.63
2018-10-18T04:17:49.473Z,19.57
2018-10-18T04:20:21.132Z,20.43
2018-10-18T04:22:52.899Z,20.73
2018-10-18T04:25:24.453Z,20.40
2018-10-18T04:27:56.055Z,19.70
2018-10-18T04:30:28.104Z,20.27
2018-10-18T04:32:59.809Z,18.70
2018-10-18T04:35:31.582Z,20.33
2018-10-18T04:38:03.611Z,20.73
2018-10-18T04:40:35.248Z,19.63
2018-10-18T04:43:07.157Z,21.23
2018-10-18T04:45:38.858Z,19.80
2018-10-18T04:48:10.456Z,19.17
2018-10-18T04:50:42.305Z,18.33
2018-10-18T04:53:13.865Z,19.97
2018-10-18T04:55:45.468Z,19.40
2018-10-18T04:58:17.076Z,18.60
2018-10-18T05:00:48.724Z,19.10
2018-10-18T05:03:20.532Z,18.63
2018-10-18T05:05:59.169Z,18.30
2018-10-18T05:08:31.029Z,19.40
2018-10-18T05:11:02.613Z,18.23
2018-10-18T05:13:34.105Z,18.40
2018-10-18T05:16:06.241Z,19.23
2018-10-18T05:18:37.730Z,20.50
2018-10-18T05:21:09.209Z,19.93
2018-10-18T05:23:40.708Z,21.10
2018-10-18T05:26:12.217Z,19.90
2018-10-18T05:28:43.772Z,20.60
2018-10-18T05:31:15.432Z,19.83
2018-10-18T05:33:46.954Z,19.73
2018-10-18T05:36:18.518Z,19.47
2018-10-18T05:38:50.032Z,19.60
2018-10-18T05:41:21.663Z,18.23
2018-10-18T05:43:53.207Z,17.77
2018-10-18T05:46:24.800Z,19.83
2018-10-18T05:48:56.348Z,18.57
2018-10-18T05:51:27.965Z,19.03
2018-10-18T05:53:59.679Z,18.90
2018-10-18T05:56:31.270Z,19.30
2018-10-18T05:59:02.892Z,18.70
2018-10-18T06:01:34.653Z,18.73
2018-10-18T06:04:06.593Z,19.10
2018-10-18T06:06:38.206Z,21.07
2018-10-18T06:09:13.022Z,20.33
2018-10-18T06:11:44.703Z,20.33
2018-10-18T06:14:16.268Z,20.10
2018-10-18T06:16:47.824Z,20.67
2018-10-18T06:19:19.656Z,21.90
2018-10-18T06:21:51.277Z,22.27
2018-10-18T06:24:22.879Z,20.87
2018-10-18T06:26:54.568Z,22.23
2018-10-18T06:29:26.362Z,23.43
2018-10-18T06:31:58.020Z,22.23
2018-10-18T06:34:29.600Z,22.83
2018-10-18T06:37:01.251Z,24.10
2018-10-18T06:39:32.820Z,23.00
2018-10-18T06:42:04.412Z,22.90
2018-10-18T06:44:35.974Z,23.63
2018-10-18T06:47:07.704Z,23.00
2018-10-18T06:49:39.268Z,21.33
2018-10-18T06:52:10.810Z,21.27
2018-10-18T06:54:42.361Z,24.77
2018-10-18T06:57:14.213Z,21.40
2018-10-18T06:59:45.949Z,20.97
2018-10-18T07:02:17.785Z,20.13
2018-10-18T07:04:49.411Z,20.07
2018-10-18T07:07:21.023Z,21.30
2018-10-18T07:09:52.677Z,19.30
2018-10-18T07:12:24.236Z,18.97
2018-10-18T07:14:55.915Z,20.10
2018-10-18T07:17:27.477Z,21.00
2018-10-18T07:19:58.977Z,21.20
2018-10-18T07:22:30.623Z,19.77
2018-10-18T07:25:02.210Z,19.90
2018-10-18T07:27:33.783Z,19.27
2018-10-18T07:30:07.198Z,19.10
2018-10-18T07:32:38.931Z,19.27
2018-10-18T07:35:12.017Z,18.67
2018-10-18T07:37:43.540Z,18.03
2018-10-18T07:40:16.407Z,17.90
2018-10-18T07:42:47.982Z,18.57
2018-10-18T07:45:19.727Z,18.13
2018-10-18T07:47:51.374Z,17.37
2018-10-18T07:50:23.157Z,16.13
2018-10-18T07:52:54.822Z,17.07
2018-10-18T07:55:26.520Z,15.97
2018-10-18T07:57:58.097Z,16.40
2018-10-18T08:00:29.725Z,16.77
2018-10-18T08:03:01.321Z,15.90
2018-10-18T08:05:33.084Z,15.10
2018-10-18T08:08:04.768Z,16.40
2018-10-18T08:10:36.637Z,14.90
2018-10-18T08:13:08.347Z,15.27
2018-10-18T08:15:39.990Z,15.47
2018-10-18T08:18:11.779Z,14.27
2018-10-18T08:20:43.437Z,14.90
2018-10-18T08:23:15.085Z,14.77
2018-10-18T08:25:46.706Z,15.27
2018-10-18T08:28:18.339Z,14.07
2018-10-18T08:30:53.412Z,13.97
2018-10-18T08:33:25.827Z,13.07
2018-10-18T08:35:57.518Z,13.90
2018-10-18T08:38:29.083Z,14.10
2018-10-18T08:41:00.617Z,13.03
2018-10-18T08:43:32.244Z,13.37
2018-10-18T08:46:03.805Z,14.17
2018-10-18T08:48:35.325Z,13.33
2018-10-18T08:51:07.127Z,13.07
2018-10-18T08:53:38.702Z,12.53
2018-10-18T08:56:10.330Z,12.10
2018-10-18T08:58:41.951Z,13.00
2018-10-18T09:01:13.620Z,13.00
2018-10-18T09:03:45.238Z,12.97
2018-10-18T09:06:16.774Z,12.17
2018-10-18T09:08:48.517Z,12.07
2018-10-18T09:11:20.170Z,13.23
2018-10-18T09:13:51.928Z,12.90
2018-10-18T09:16:23.587Z,13.23
2018-10-18T09:18:55.365Z,12.97
2018-10-18T09:21:27.011Z,13.70
2018-10-18T09:23:58.678Z,13.83
2018-10-18T09:26:30.396Z,13.83
2018-10-18T09:29:02.125Z,14.03
2018-10-18T09:31:33.881Z,13.17
2018-10-18T09:34:05.636Z,14.03
2018-10-18T09:36:37.162Z,13.53
2018-10-18T09:39:09.705Z,13.33
2018-10-18T09:41:41.309Z,13.60
2018-10-18T09:44:12.889Z,14.17
2018-10-18T09:46:44.487Z,13.60
2018-10-18T09:49:16.161Z,15.00
2018-10-18T09:51:47.738Z,14.43
2018-10-18T09:54:19.283Z,13.90
2018-10-18T09:56:50.888Z,14.40
2018-10-18T09:59:22.665Z,13.67
2018-10-18T10:01:59.445Z,15.70
2018-10-18T10:04:31.253Z,13.30
2018-10-18T10:07:03.882Z,14.40
2018-10-18T10:09:35.551Z,15.37
2018-10-18T10:12:07.465Z,15.87
2018-10-18T10:14:39.082Z,15.47
2018-10-18T10:17:10.749Z,14.20
2018-10-18T10:19:42.347Z,14.87
2018-10-18T10:22:14.092Z,14.97
2018-10-18T10:24:45.906Z,14.67
2018-10-18T10:27:17.443Z,15.53
2018-10-18T10:29:49.019Z,15.20
2018-10-18T10:32:20.697Z,15.10
2018-10-18T10:34:52.353Z,15.37
2018-10-18T10:37:24.009Z,15.93
2018-10-18T10:39:55.718Z,16.33
2018-10-18T10:42:27.428Z,16.17
2018-10-18T10:44:59.401Z,16.37
2018-10-18T10:47:31.157Z,15.80
2018-10-18T10:50:02.886Z,16.63
2018-10-18T10:52:34.479Z,15.57
2018-10-18T10:55:07.134Z,16.63
2018-10-18T10:57:38.667Z,15.97
2018-10-18T11:00:10.433Z,16.57
2018-10-18T11:02:41.957Z,16.13
2018-10-18T11:05:13.471Z,16.67
2018-10-18T11:07:45.045Z,17.00
2018-10-18T11:10:16.592Z,17.17
2018-10-18T11:12:48.171Z,16.27
2018-10-18T11:15:19.770Z,17.23
2018-10-18T11:17:51.311Z,17.27
2018-10-18T11:20:22.766Z,16.90
2018-10-18T11:22:54.233Z,14.93
2018-10-18T11:25:25.726Z,16.07
2018-10-18T11:27:57.505Z,16.53
2018-10-18T11:30:29.126Z,15.73
2018-10-18T11:33:00.744Z,15.10
2018-10-18T11:35:32.344Z,16.83
2018-10-18T11:38:03.984Z,15.17
2018-10-18T11:40:35.925Z,16.40
2018-10-18T11:43:08.246Z,15.40
2018-10-18T11:45:40.298Z,15.83
2018-10-18T11:48:16.581Z,15.80
2018-10-18T11:50:48.103Z,15.30
2018-10-18T11:53:19.705Z,15.30
2018-10-18T11:55:51.261Z,14.47
2018-10-18T11:58:23.091Z,15.33
2018-10-18T12:00:54.666Z,14.70
2018-10-18T12:03:26.283Z,14.53
2018-10-18T12:05:57.980Z,14.00
2018-10-18T12:08:29.619Z,14.00
2018-10-18T12:11:01.206Z,14.13
2018-10-18T12:13:32.949Z,14.20
2018-10-18T12:16:04.761Z,13.67
2018-10-18T12:18:36.346Z,13.47
2018-10-18T12:21:08.131Z,13.57
2018-10-18T12:23:39.689Z,13.80
2018-10-18T12:26:11.443Z,14.10
2018-10-18T12:28:42.885Z,12.57
2018-10-18T12:31:14.605Z,12.93
2018-10-18T12:33:46.226Z,12.50
2018-10-18T12:36:17.979Z,12.13
2018-10-18T12:38:49.463Z,12.37
2018-10-18T12:41:21.249Z,12.00
2018-10-18T12:43:52.555Z,12.17
2018-10-18T12:46:24.162Z,12.37
2018-10-18T12:48:55.764Z,12.07
2018-10-18T12:51:27.359Z,12.33
2018-10-18T12:53:58.928Z,11.60
2018-10-18T12:56:30.480Z,11.80
2018-10-18T12:59:02.010Z,11.93
2018-10-18T13:01:33.743Z,11.17
2018-10-18T13:04:05.450Z,11.63
2018-10-18T13:06:37.004Z,10.80
2018-10-18T13:09:10.452Z,10.90
2018-10-18T13:11:42.368Z,10.57
2018-10-18T13:14:13.953Z,11.07
2018-10-18T13:16:45.407Z,11.00
2018-10-18T13:19:17.160Z,10.87
2018-10-18T13:21:48.788Z,10.33
2018-10-18T13:24:21.096Z,10.83
2018-10-18T13:26:52.651Z,10.77
2018-10-18T13:29:24.293Z,9.93
2018-10-18T13:31:56.060Z,10.97
2018-10-18T13:34:27.671Z,10.90
2018-10-18T13:36:59.323Z,10.47
2018-10-18T13:39:30.953Z,9.83
2018-10-18T13:42:02.642Z,10.97
2018-10-18T13:44:34.207Z,10.70
2018-10-18T13:47:05.839Z,10.83
2018-10-18T13:49:37.386Z,8.97
2018-10-18T13:52:08.969Z,9.53
2018-10-18T13:54:40.570Z,10.03
2018-10-18T13:57:12.151Z,10.07
2018-10-18T14:00:00.771Z,9.53
2018-10-18T14:02:32.579Z,10.20
2018-10-18T14:05:04.200Z,10.33
2018-10-18T14:07:35.883Z,9.63
2018-10-18T14:10:07.641Z,9.90
2018-10-18T14:12:39.467Z,9.53
2018-10-18T14:15:11.073Z,9.67
2018-10-18T14:17:42.787Z,9.20
2018-10-18T14:20:14.457Z,8.60
2018-10-18T14:22:45.974Z,9.00
2018-10-18T14:25:17.580Z,8.90
2018-10-18T14:27:49.318Z,9.90
2018-10-18T14:30:20.921Z,9.10
2018-10-18T14:32:52.436Z,9.37
2018-10-18T14:35:24.150Z,8.57
2018-10-18T14:37:55.665Z,8.70
2018-10-18T14:40:27.176Z,8.80
2018-10-18T14:42:58.659Z,8.43
2018-10-18T14:45:30.251Z,8.80
2018-10-18T14:48:01.750Z,8.27
2018-10-18T14:50:33.670Z,8.73
2018-10-18T14:53:05.366Z,8.70
2018-10-18T14:55:36.899Z,8.10
2018-10-18T14:58:08.717Z,9.00
2018-10-18T15:00:40.225Z,9.20
2018-10-18T15:03:11.838Z,8.37
2018-10-18T15:05:43.543Z,9.43
2018-10-18T15:08:15.380Z,8.60
2018-10-18T15:10:46.954Z,8.63
2018-10-18T15:13:18.629Z,9.00
2018-10-18T15:15:50.254Z,8.40
2018-10-18T15:18:21.990Z,8.33
2018-10-18T15:20:53.816Z,9.47
2018-10-18T15:23:25.339Z,8.63
2018-10-18T15:25:57.402Z,9.00
2018-10-18T15:28:28.979Z,8.20
2018-10-18T15:31:00.596Z,7.87
2018-10-18T15:33:32.357Z,8.63
2018-10-18T15:36:04.292Z,7.70
2018-10-18T15:38:35.952Z,7.70
2018-10-18T15:41:14.208Z,7.70
2018-10-18T15:43:45.771Z,8.70
2018-10-18T15:46:17.789Z,8.20
2018-10-18T15:48:49.481Z,7.60
2018-10-18T15:51:20.970Z,27.37
2018-10-18T15:53:52.470Z,17.60
2018-10-18T15:56:24.012Z,11.17
2018-10-18T15:58:55.659Z,10.33
2018-10-18T16:01:27.270Z,9.83
2018-10-18T16:03:58.969Z,11.37
2018-10-18T16:06:30.752Z,10.80
2018-10-18T16:09:02.634Z,11.07
2018-10-18T16:11:34.559Z,11.03
2018-10-18T16:14:06.264Z,9.80
2018-10-18T16:16:37.860Z,9.67
2018-10-18T16:19:09.471Z,9.83
2018-10-18T16:21:41.146Z,10.13
2018-10-18T16:24:12.885Z,10.63
2018-10-18T16:26:44.611Z,9.73
2018-10-18T16:29:16.332Z,10.33
2018-10-18T16:31:47.811Z,9.43
2018-10-18T16:34:19.391Z,9.17
2018-10-18T16:36:51.035Z,9.43
2018-10-18T16:39:22.491Z,9.50
2018-10-18T16:41:54.173Z,10.23
2018-10-18T16:44:25.896Z,9.73
2018-10-18T16:46:57.530Z,9.40
2018-10-18T16:49:29.061Z,9.83
2018-10-18T16:52:00.981Z,9.33
2018-10-18T16:54:32.796Z,9.03
2018-10-18T16:57:04.441Z,8.53
2018-10-18T16:59:36.052Z,10.67
2018-10-18T17:02:07.757Z,10.07
2018-10-18T17:04:39.282Z,10.70
2018-10-18T17:07:10.826Z,9.30
2018-10-18T17:09:42.446Z,9.60
2018-10-18T17:12:14.167Z,9.77
2018-10-18T17:14:45.671Z,9.33
2018-10-18T17:17:17.290Z,9.23
2018-10-18T17:19:48.942Z,9.83
2018-10-18T17:22:20.643Z,10.13
2018-10-18T17:24:52.399Z,10.60
2018-10-18T17:27:24.321Z,10.70
2018-10-18T17:29:55.783Z,10.70
2018-10-18T17:32:27.499Z,10.93
2018-10-18T17:34:59.193Z,10.23
2018-10-18T17:37:30.913Z,9.90
2018-10-18T17:40:02.498Z,10.03
2018-10-18T17:42:34.664Z,9.60
2018-10-18T17:45:08.225Z,11.07
2018-10-18T17:47:39.924Z,9.67
2018-10-18T17:50:11.923Z,9.30
2018-10-18T17:52:43.426Z,9.40
2018-10-18T17:55:14.928Z,9.10
2018-10-18T17:57:46.528Z,9.13
2018-10-18T18:00:18.082Z,9.77
2018-10-18T18:02:49.599Z,9.20
2018-10-18T18:05:21.275Z,9.20
2018-10-18T18:07:52.847Z,8.70
2018-10-18T18:10:24.617Z,8.50
2018-10-18T18:12:56.457Z,8.20
2018-10-18T18:15:28.160Z,7.73
2018-10-18T18:17:59.796Z,9.33
2018-10-18T18:20:31.495Z,8.80
2018-10-18T18:23:03.149Z,8.53
2018-10-18T18:25:34.926Z,8.90
2018-10-18T18:28:06.653Z,7.70
2018-10-18T18:30:38.246Z,8.17
2018-10-18T18:33:09.873Z,7.93
2018-10-18T18:35:41.506Z,7.23
2018-10-18T18:38:13.006Z,8.23
2018-10-18T18:40:44.669Z,7.53
2018-10-18T18:43:22.723Z,7.13
2018-10-18T18:45:54.393Z,7.70
2018-10-18T18:48:25.959Z,7.83
2018-10-18T18:50:57.522Z,7.00
2018-10-18T18:53:29.050Z,7.23
2018-10-18T18:56:00.669Z,6.87
2018-10-18T18:58:32.174Z,7.10
2018-10-18T19:01:03.897Z,7.00
2018-10-18T19:03:35.424Z,7.40
2018-10-18T19:06:06.920Z,7.10
2018-10-18T19:08:38.590Z,7.40
2018-10-18T19:11:10.314Z,7.87
2018-10-18T19:13:41.875Z,6.93
2018-10-18T19:16:13.677Z,6.50
2018-10-18T19:18:45.228Z,6.53
2018-10-18T19:21:16.826Z,6.50
2018-10-18T19:23:48.318Z,7.00
2018-10-18T19:26:20.161Z,7.00
2018-10-18T19:28:51.809Z,6.70
2018-10-18T19:31:23.364Z,6.40
2018-10-18T19:33:55.188Z,6.47
2018-10-18T19:36:26.827Z,6.80
2018-10-18T19:38:58.458Z,7.27
2018-10-18T19:41:30.283Z,7.00
2018-10-18T19:44:01.873Z,6.70
2018-10-18T19:46:33.501Z,7.27
2018-10-18T19:49:05.342Z,6.27
2018-10-18T19:51:36.861Z,6.00
2018-10-18T19:54:08.406Z,6.47
2018-10-18T19:56:39.947Z,6.27
2018-10-18T19:59:11.511Z,7.10
2018-10-18T20:01:43.040Z,6.17
2018-10-18T20:04:14.663Z,6.23
2018-10-18T20:06:46.359Z,7.40
2018-10-18T20:09:17.953Z,6.33
2018-10-18T20:11:49.518Z,6.10
2018-10-18T20:14:21.032Z,6.80
2018-10-18T20:16:52.621Z,6.03
2018-10-18T20:19:24.099Z,6.57
2018-10-18T20:21:55.595Z,6.80
2018-10-18T20:24:27.101Z,6.50
2018-10-18T20:26:58.532Z,6.23
2018-10-18T20:29:29.948Z,6.37
2018-10-18T20:32:01.522Z,6.50
2018-10-18T20:34:32.945Z,6.60
2018-10-18T20:37:04.457Z,5.93
2018-10-18T20:39:36.022Z,6.63
2018-10-18T20:42:07.596Z,6.40
2018-10-18T20:44:39.146Z,6.20
2018-10-18T20:47:10.757Z,6.73
2018-10-18T20:49:42.246Z,5.97
2018-10-18T20:52:13.792Z,6.33
2018-10-18T20:54:45.303Z,6.27
2018-10-18T20:57:17.008Z,5.87
2018-10-18T20:59:48.469Z,6.07
2018-10-18T21:02:19.962Z,6.37
2018-10-18T21:04:51.517Z,6.30
2018-10-18T21:07:23.109Z,6.40
2018-10-18T21:09:54.745Z,5.50
2018-10-18T21:12:26.246Z,6.27
2018-10-18T21:14:57.778Z,6.27
2018-10-18T21:17:29.356Z,6.00
2018-10-18T21:20:01.010Z,6.07
2018-10-18T21:22:32.577Z,5.43
2018-10-18T21:25:04.183Z,5.60
2018-10-18T21:27:35.654Z,5.67
2018-10-18T21:30:08.296Z,5.50
2018-10-18T21:32:39.861Z,4.97
2018-10-18T21:35:11.511Z,5.10
2018-10-18T21:37:43.112Z,4.87
2018-10-18T21:40:14.627Z,5.33
2018-10-18T21:42:46.232Z,5.03
2018-10-18T21:45:18.478Z,4.47
2018-10-18T21:47:50.322Z,4.87
2018-10-18T21:50:22.040Z,4.93
2018-10-18T21:52:53.633Z,4.50
2018-10-18T21:55:25.105Z,4.80
2018-10-18T21:57:56.847Z,5.00
2018-10-18T22:00:29.536Z,4.37
2018-10-18T22:03:01.116Z,4.17
2018-10-18T22:05:32.851Z,4.67
2018-10-18T22:08:04.843Z,4.23
2018-10-18T22:10:36.408Z,4.67
2018-10-18T22:13:08.018Z,4.20
2018-10-18T22:15:39.570Z,4.37
2018-10-18T22:18:11.106Z,4.10
2018-10-18T22:20:42.569Z,3.90
2018-10-18T22:23:14.125Z,4.13
2018-10-18T22:25:45.654Z,4.03
2018-10-18T22:28:17.131Z,3.77
2018-10-18T22:30:48.705Z,3.77
2018-10-18T22:33:20.242Z,3.60
2018-10-18T22:35:51.710Z,3.80
2018-10-18T22:38:23.222Z,3.80
2018-10-18T22:40:54.781Z,3.47
2018-10-18T22:43:26.532Z,4.03
2018-10-18T22:46:00.747Z,3.43
2018-10-18T22:48:32.640Z,3.23
2018-10-18T22:51:04.194Z,3.40
2018-10-18T22:53:35.746Z,3.20
2018-10-18T22:56:07.497Z,3.20
2018-10-18T22:58:39.135Z,3.13
2018-10-18T23:01:10.676Z,3.07
2018-10-18T23:03:42.227Z,3.30
2018-10-18T23:06:13.884Z,3.30
2018-10-18T23:08:45.475Z,3.13
2018-10-18T23:11:16.991Z,3.37
2018-10-18T23:13:48.498Z,3.13
2018-10-18T23:16:19.913Z,3.20
2018-10-18T23:18:51.419Z,3.03
2018-10-18T23:21:22.855Z,3.13
2018-10-18T23:23:54.395Z,3.00
2018-10-18T23:26:25.794Z,2.80
2018-10-18T23:28:57.517Z,2.93
2018-10-18T23:31:28.923Z,3.07
2018-10-18T23:34:00.449Z,2.83
2018-10-18T23:36:31.941Z,2.90
2018-10-18T23:39:03.548Z,2.53
2018-10-18T23:41:35.044Z,2.97
2018-10-18T23:44:06.932Z,3.40
2018-10-18T23:46:38.426Z,2.80
2018-10-18T23:49:10.103Z,2.40
2018-10-18T23:51:41.739Z,2.93
2018-10-18T23:54:13.363Z,2.20
2018-10-18T23:56:44.922Z,2.40
2018-10-18T23:59:16.607Z,2.70
